CYQK

Kenora Airport

Kenora, Ontario, Canada
METAR CYQK 201600Z 35011G20KT 20SM BKN025 M03/M10 A3022 RMK SC6 SLP256
Observed Flight Rules
Oct-20 @ 16:00 UTC (an hour ago) Marginal Visual Flight Rules
Wind Visibility Clouds
350° at 11 knots
 Gusting to 20 knots
20 miles
  • Broken at 2,500' AGL
Temperatures Readings
Current -3°C / 27°F
Dewpoint -10°C / 14°F
Humidity 59%
Altimeter 30.22" Hg
Pressure 1025.6 hPa
Elevation 411
METAR CYQK 201600Z 35011G20KT 20SM BKN025 M03/M10 A3022 RMK SC6 SLP256
Observed Flight Rules
Oct-20 @ 16:00 UTC
(an hour ago)
MVFR
Wind Visibility
350° at 11 knots
 Gusting to 20 knots
20 miles
Clouds
  • Broken at 2,500' AGL
Temperature Dewpoint
-3°C / 27°F -10°C / 14°F
Humidity Altimeter Pressure
59% 30.22" Hg 1025.6 hPa